Time;durP1;ratioP1;P1;durP2;ratioP2;P2;SDS_P1;SDS_P2;PMS_P1;PMS_P2;Temp;Humidity;BMP_temperature;BMP_pressure;BME280_temperature;BME280_humidity;BME280_pressure;Samples;Min_cycle;Max_cycle;Signal;HPM_P1;HPM_P2
2023/04/23 00:01:56;;;;;;;;;;;;;;;;;;6232739;23;19926;-80
2023/04/23 00:04:25;;;;;;;;;;;;;;;;;;6223705;23;19926;-80
2023/04/23 00:06:52;;;;;;;;;;;;;;;;;;6250433;23;20237;-80
2023/04/23 00:09:21;;;;;;;;;;;;;;;;;;6198474;23;19920;-80
2023/04/23 00:11:48;;;;;;;;;;;;;;;;;;6197341;23;19926;-80
2023/04/23 00:14:17;;;;;;;;;;;;;;;;;;6223197;23;19923;-80
2023/04/23 00:16:44;;;;;;;;;;;;;;;;;;6223976;23;19920;-80
2023/04/23 00:19:13;;;;;;;;;;;;;;;;;;6198130;23;20248;-80
2023/04/23 00:21:42;;;;;;;;;;;;;;;;;;6223342;23;19920;-80
2023/04/23 00:24:09;;;;;;;;;;;;;;;;;;6197494;23;19926;-80
2023/04/23 00:26:38;;;;;;;;;;;;;;;;;;6223581;23;19926;-80
2023/04/23 00:29:07;;;;;;;;;;;;;;;;;;6223568;23;19939;-80
2023/04/23 00:31:34;;;;;;;;;;;;;;;;;;6223868;23;19938;-80
2023/04/23 00:34:06;;;;;;;;;;;;;;;;;;6223827;23;19926;-79
2023/04/23 00:36:35;;;;;;;;;;;;;;;;;;6199368;23;19920;-80
2023/04/23 00:39:04;;;;;;;;;;;;;;;;;;6223515;23;19935;-80
2023/04/23 00:41:31;;;;;;;;;;;;;;;;;;6224827;23;19926;-80
2023/04/23 00:43:59;;;;;;;;;;;;;;;;;;6198941;23;20367;-80
2023/04/23 00:46:27;;;;;;;;;;;;;;;;;;6223998;23;19923;-80
2023/04/23 00:48:56;;;;;;;;;;;;;;;;;;6198676;23;19920;-80
2023/04/23 00:51:23;;;;;;;;;;;;;;;;;;6224344;23;19923;-80
2023/04/23 00:53:50;;;;;;;;;;;;;;;;;;6223350;23;19923;-80
2023/04/23 00:56:18;;;;;;;;;;;;;;;;;;6198927;23;19931;-80
2023/04/23 00:58:45;;;;;;;;;;;;;;;;;;6198294;23;19926;-80
2023/04/23 01:01:17;;;;;;;;;;;;;;;;;;6223044;23;19919;-80
2023/04/23 01:03:45;;;;;;;;;;;;;;;;;;6223014;23;19926;-80
2023/04/23 01:06:12;;;;;;;;;;;;;;;;;;6258446;23;19919;-80
2023/04/23 01:08:39;;;;;;;;;;;;;;;;;;6222373;23;19938;-80
2023/04/23 01:11:06;;;;;;;;;;;;;;;;;;6231851;23;19920;-80
2023/04/23 01:13:34;;;;;;;;;;;;;;;;;;6196754;23;19950;-80
2023/04/23 01:16:04;;;;;;;;;;;;;;;;;;6230959;23;20358;-80
2023/04/23 01:18:31;;;;;;;;;;;;;;;;;;6194647;23;19920;-80
2023/04/23 01:20:58;;;;;;;;;;;;;;;;;;6220736;23;19972;-80
2023/04/23 01:23:27;;;;;;;;;;;;;;;;;;6196867;23;19920;-80
2023/04/23 01:25:54;;;;;;;;;;;;;;;;;;6223449;23;19930;-80
2023/04/23 01:28:21;;;;;;;;;;;;;;;;;;6197166;23;19926;-80
2023/04/23 01:30:48;;;;;;;;;;;;;;;;;;6197741;23;19923;-80
2023/04/23 01:33:15;;;;;;;;;;;;;;;;;;6222922;23;19972;-80
2023/04/23 01:35:42;;;;;;;;;;;;;;;;;;6223036;23;19920;-80
2023/04/23 01:38:11;;;;;;;;;;;;;;;;;;6223415;23;20247;-80
2023/04/23 01:40:40;;;;;;;;;;;;;;;;;;6220114;23;19923;-80
2023/04/23 01:43:07;;;;;;;;;;;;;;;;;;6194088;23;19920;-80
2023/04/23 01:45:34;;;;;;;;;;;;;;;;;;6221712;23;19923;-80
2023/04/23 01:48:01;;;;;;;;;;;;;;;;;;6195190;23;19924;-80
2023/04/23 01:50:28;;;;;;;;;;;;;;;;;;6196254;23;19920;-80
2023/04/23 01:52:57;;;;;;;;;;;;;;;;;;6194977;23;19920;-80
2023/04/23 01:55:25;;;;;;;;;;;;;;;;;;6221519;23;19927;-80
2023/04/23 01:57:53;;;;;;;;;;;;;;;;;;6220529;23;19927;-80
2023/04/23 02:00:20;;;;;;;;;;;;;;;;;;6196101;23;19935;-80
2023/04/23 02:02:47;;;;;;;;;;;;;;;;;;6219968;23;19927;-80
2023/04/23 02:05:18;;;;;;;;;;;;;;;;;;6220086;23;19927;-80
2023/04/23 02:07:47;;;;;;;;;;;;;;;;;;6194957;23;19939;-80
2023/04/23 02:10:17;;;;;;;;;;;;;;;;;;6197367;23;19920;-80
2023/04/23 02:12:44;;;;;;;;;;;;;;;;;;6221846;23;19920;-80
2023/04/23 02:15:13;;;;;;;;;;;;;;;;;;6197643;23;19920;-80
2023/04/23 02:17:40;;;;;;;;;;;;;;;;;;6222555;23;19926;-80
2023/04/23 02:20:10;;;;;;;;;;;;;;;;;;6197287;23;19928;-80
2023/04/23 02:22:40;;;;;;;;;;;;;;;;;;6222412;23;19935;-80
2023/04/23 02:25:08;;;;;;;;;;;;;;;;;;6197777;23;19930;-80
2023/04/23 02:27:36;;;;;;;;;;;;;;;;;;6198008;23;20200;-80
2023/04/23 02:30:04;;;;;;;;;;;;;;;;;;6197509;23;19920;-80
2023/04/23 02:32:33;;;;;;;;;;;;;;;;;;6198235;23;19920;-80
2023/04/23 02:35:04;;;;;;;;;;;;;;;;;;6198652;23;20370;-80
2023/04/23 02:37:32;;;;;;;;;;;;;;;;;;6197876;23;19919;-80
2023/04/23 02:39:59;;;;;;;;;;;;;;;;;;6195436;23;19919;-80
2023/04/23 02:42:26;;;;;;;;;;;;;;;;;;6218624;23;19920;-80
2023/04/23 02:44:55;;;;;;;;;;;;;;;;;;6193121;23;19919;-80
2023/04/23 02:47:25;;;;;;;;;;;;;;;;;;6192849;23;19926;-80
2023/04/23 02:49:53;;;;;;;;;;;;;;;;;;6193254;23;19919;-80
2023/04/23 02:52:23;;;;;;;;;;;;;;;;;;6194445;23;20243;-80
2023/04/23 02:54:49;;;;;;;;;;;;;;;;;;6204306;23;19924;-80
2023/04/23 02:57:16;;;;;;;;;;;;;;;;;;6223978;22;19920;-80
2023/04/23 02:59:44;;;;;;;;;;;;;;;;;;6195564;23;19920;-80
2023/04/23 03:02:13;;;;;;;;;;;;;;;;;;6195714;23;19927;-80
2023/04/23 03:04:40;;;;;;;;;;;;;;;;;;6223140;23;20362;-80
2023/04/23 03:07:08;;;;;;;;;;;;;;;;;;6201224;22;19926;-80
2023/04/23 03:09:36;;;;;;;;;;;;;;;;;;6198903;23;19926;-80
2023/04/23 03:12:03;;;;;;;;;;;;;;;;;;6226240;23;19920;-80
2023/04/23 03:14:30;;;;;;;;;;;;;;;;;;6200299;23;19920;-80
2023/04/23 03:16:57;;;;;;;;;;;;;;;;;;6200427;22;19926;-80
2023/04/23 03:19:24;;;;;;;;;;;;;;;;;;6224416;23;19926;-80
2023/04/23 03:21:54;;;;;;;;;;;;;;;;;;6176301;23;20374;-80
2023/04/23 03:24:25;;;;;;;;;;;;;;;;;;6225725;23;19924;-80
2023/04/23 03:26:52;;;;;;;;;;;;;;;;;;6199914;23;19920;-80
2023/04/23 03:29:19;;;;;;;;;;;;;;;;;;6200157;23;19923;-80
2023/04/23 03:31:49;;;;;;;;;;;;;;;;;;6203683;23;19919;-80
2023/04/23 03:34:20;;;;;;;;;;;;;;;;;;6203156;23;19919;-80
2023/04/23 03:36:49;;;;;;;;;;;;;;;;;;6239398;23;19919;-80
2023/04/23 03:39:17;;;;;;;;;;;;;;;;;;6202539;23;19919;-80
2023/04/23 03:41:51;;;;;;;;;;;;;;;;;;6237851;23;19932;-80
2023/04/23 03:44:22;;;;;;;;;;;;;;;;;;6202237;23;19919;-80
2023/04/23 03:46:51;;;;;;;;;;;;;;;;;;6203860;23;19934;-80
2023/04/23 03:49:18;;;;;;;;;;;;;;;;;;6201974;23;19945;-80
2023/04/23 03:51:48;;;;;;;;;;;;;;;;;;6228936;23;19923;-80
2023/04/23 03:54:16;;;;;;;;;;;;;;;;;;6228172;23;19926;-80
2023/04/23 03:57:02;;;;;;;;;;;;;;;;;;6203198;22;19933;-80
2023/04/23 03:59:34;;;;;;;;;;;;;;;;;;6201443;23;19920;-80
2023/04/23 04:02:02;;;;;;;;;;;;;;;;;;6203393;23;19923;-80
2023/04/23 04:04:32;;;;;;;;;;;;;;;;;;6202593;23;19920;-80
2023/04/23 04:07:01;;;;;;;;;;;;;;;;;;6203544;22;19923;-80
2023/04/23 04:09:29;;;;;;;;;;;;;;;;;;6227876;23;20225;-80
2023/04/23 04:12:01;;;;;;;;;;;;;;;;;;6201455;22;19927;-79
2023/04/23 04:14:31;;;;;;;;;;;;;;;;;;6193138;23;19920;-78
2023/04/23 04:16:58;;;;;;;;;;;;;;;;;;6193792;22;19919;-78
2023/04/23 04:19:25;;;;;;;;;;;;;;;;;;6191673;23;19927;-78
2023/04/23 04:21:52;;;;;;;;;;;;;;;;;;6193311;23;19920;-78
2023/04/23 04:24:20;;;;;;;;;;;;;;;;;;6218292;23;19925;-78
2023/04/23 04:26:47;;;;;;;;;;;;;;;;;;6193907;23;19926;-77
2023/04/23 04:29:16;;;;;;;;;;;;;;;;;;6218003;23;20247;-78
2023/04/23 04:31:45;;;;;;;;;;;;;;;;;;6193548;23;19919;-79
2023/04/23 04:34:13;;;;;;;;;;;;;;;;;;6245407;23;19927;-78
2023/04/23 04:36:42;;;;;;;;;;;;;;;;;;6218363;23;19926;-78
2023/04/23 04:39:10;;;;;;;;;;;;;;;;;;6192809;23;20328;-78
2023/04/23 04:41:42;;;;;;;;;;;;;;;;;;6218410;23;19923;-78
2023/04/23 04:44:09;;;;;;;;;;;;;;;;;;6218855;23;19920;-79
2023/04/23 04:46:39;;;;;;;;;;;;;;;;;;6193224;23;19923;-78
2023/04/23 04:49:10;;;;;;;;;;;;;;;;;;6217542;23;19920;-78
2023/04/23 04:51:37;;;;;;;;;;;;;;;;;;6193367;23;19924;-79
2023/04/23 04:54:05;;;;;;;;;;;;;;;;;;6193639;23;19926;-79
2023/04/23 04:56:35;;;;;;;;;;;;;;;;;;6229372;23;19919;-78
2023/04/23 04:59:02;;;;;;;;;;;;;;;;;;6192861;23;19923;-78
2023/04/23 05:01:29;;;;;;;;;;;;;;;;;;6218019;23;19931;-79
2023/04/23 05:04:01;;;;;;;;;;;;;;;;;;6217994;23;19931;-78
2023/04/23 05:06:30;;;;;;;;;;;;;;;;;;6192967;23;19926;-78
2023/04/23 05:08:57;;;;;;;;;;;;;;;;;;6217416;23;19920;-78
2023/04/23 05:11:24;;;;;;;;;;;;;;;;;;6193346;23;19926;-78
2023/04/23 05:13:51;;;;;;;;;;;;;;;;;;6218255;23;19920;-78
2023/04/23 05:16:23;;;;;;;;;;;;;;;;;;6229608;23;19920;-78
2023/04/23 05:18:52;;;;;;;;;;;;;;;;;;6218633;23;19930;-78
2023/04/23 05:21:19;;;;;;;;;;;;;;;;;;6219183;23;19926;-78
2023/04/23 05:23:48;;;;;;;;;;;;;;;;;;6217976;23;19919;-78
2023/04/23 05:26:18;;;;;;;;;;;;;;;;;;6218537;23;19919;-78
2023/04/23 05:28:47;;;;;;;;;;;;;;;;;;6243052;22;19924;-78
2023/04/23 05:31:14;;;;;;;;;;;;;;;;;;6218136;23;19920;-78
2023/04/23 05:33:43;;;;;;;;;;;;;;;;;;6218360;23;19926;-79
2023/04/23 05:36:10;;;;;;;;;;;;;;;;;;6219172;23;19920;-78
2023/04/23 05:38:40;;;;;;;;;;;;;;;;;;6217181;23;20279;-78
2023/04/23 05:41:08;;;;;;;;;;;;;;;;;;6193922;23;19920;-78
2023/04/23 05:43:39;;;;;;;;;;;;;;;;;;6217505;23;19924;-78
2023/04/23 05:46:07;;;;;;;;;;;;;;;;;;6219745;23;19920;-78
2023/04/23 05:48:36;;;;;;;;;;;;;;;;;;6191951;23;20359;-78
2023/04/23 05:51:05;;;;;;;;;;;;;;;;;;6218415;23;19920;-78
2023/04/23 05:53:33;;;;;;;;;;;;;;;;;;6216794;23;19932;-78
2023/04/23 05:56:02;;;;;;;;;;;;;;;;;;6192767;23;19930;-79
2023/04/23 05:58:30;;;;;;;;;;;;;;;;;;6192397;23;20252;-79
2023/04/23 06:00:57;;;;;;;;;;;;;;;;;;6192725;23;19919;-78
2023/04/23 06:03:27;;;;;;;;;;;;;;;;;;6219028;23;19920;-79
2023/04/23 06:05:54;;;;;;;;;;;;;;;;;;6245901;23;20355;-79
2023/04/23 06:08:23;;;;;;;;;;;;;;;;;;6193136;23;19919;-77
2023/04/23 06:10:50;;;;;;;;;;;;;;;;;;6191658;23;19930;-78
2023/04/23 06:13:17;;;;;;;;;;;;;;;;;;6202667;23;19919;-79
2023/04/23 06:15:46;;;;;;;;;;;;;;;;;;6250345;23;20419;-79
2023/04/23 06:18:13;;;;;;;;;;;;;;;;;;6198466;23;19931;-79
2023/04/23 06:20:40;;;;;;;;;;;;;;;;;;6197377;23;19920;-79
2023/04/23 06:23:09;;;;;;;;;;;;;;;;;;6198517;23;19920;-79
2023/04/23 06:25:36;;;;;;;;;;;;;;;;;;6224279;23;19926;-80
2023/04/23 06:28:06;;;;;;;;;;;;;;;;;;6224916;23;19919;-79
2023/04/23 06:30:42;;;;;;;;;;;;;;;;;;6200727;23;20360;-79
2023/04/23 06:33:11;;;;;;;;;;;;;;;;;;6201546;23;19920;-80
2023/04/23 06:35:40;;;;;;;;;;;;;;;;;;6238336;23;19920;-80
2023/04/23 06:38:07;;;;;;;;;;;;;;;;;;6202666;23;19973;-79
2023/04/23 06:40:34;;;;;;;;;;;;;;;;;;6227506;23;19920;-79
2023/04/23 06:43:03;;;;;;;;;;;;;;;;;;6227891;23;19919;-79
2023/04/23 06:45:46;;;;;;;;;;;;;;;;;;6201443;23;20358;-79
2023/04/23 06:48:17;;;;;;;;;;;;;;;;;;6227248;23;19919;-79
2023/04/23 06:50:47;;;;;;;;;;;;;;;;;;6201190;23;20264;-79
2023/04/23 06:53:14;;;;;;;;;;;;;;;;;;6201178;23;20256;-79
2023/04/23 06:55:41;;;;;;;;;;;;;;;;;;6228907;23;19919;-79
2023/04/23 06:58:08;;;;;;;;;;;;;;;;;;6227284;23;20343;-79
2023/04/23 07:00:35;;;;;;;;;;;;;;;;;;6253825;23;19923;-79
2023/04/23 07:03:02;;;;;;;;;;;;;;;;;;6223817;23;19932;-78
2023/04/23 07:05:30;;;;;;;;;;;;;;;;;;6195710;23;20255;-79
2023/04/23 07:08:03;;;;;;;;;;;;;;;;;;6224684;23;19924;-78
2023/04/23 07:10:30;;;;;;;;;;;;;;;;;;6194246;23;19934;-79
2023/04/23 07:12:56;;;;;;;;;;;;;;;;;;6219336;23;20386;-79
2023/04/23 07:15:24;;;;;;;;;;;;;;;;;;6216683;23;20255;-78
2023/04/23 07:17:51;;;;;;;;;;;;;;;;;;6217620;23;19920;-78
2023/04/23 07:20:18;;;;;;;;;;;;;;;;;;6193130;23;20251;-78
2023/04/23 07:22:48;;;;;;;;;;;;;;;;;;6219248;23;20344;-78
2023/04/23 07:25:15;;;;;;;;;;;;;;;;;;6194207;23;19920;-78
2023/04/23 07:27:42;;;;;;;;;;;;;;;;;;6192429;23;19934;-78
2023/04/23 07:30:10;;;;;;;;;;;;;;;;;;6218387;23;19945;-78
2023/04/23 07:32:39;;;;;;;;;;;;;;;;;;6217493;23;19920;-78
2023/04/23 07:35:09;;;;;;;;;;;;;;;;;;6199601;23;19920;-78
2023/04/23 07:37:36;;;;;;;;;;;;;;;;;;6199401;23;19926;-79
2023/04/23 07:40:05;;;;;;;;;;;;;;;;;;6202397;23;19934;-81
2023/04/23 07:42:32;;;;;;;;;;;;;;;;;;6229760;23;19925;-81
2023/04/23 07:45:01;;;;;;;;;;;;;;;;;;6204702;23;19926;-80
2023/04/23 07:47:30;;;;;;;;;;;;;;;;;;6204026;23;19920;-80
2023/04/23 07:49:57;;;;;;;;;;;;;;;;;;6203026;23;20122;-80
2023/04/23 07:52:26;;;;;;;;;;;;;;;;;;6204123;23;19920;-80
2023/04/23 07:54:56;;;;;;;;;;;;;;;;;;6229588;23;19920;-80
2023/04/23 07:57:24;;;;;;;;;;;;;;;;;;6227818;23;19920;-81
2023/04/23 07:59:51;;;;;;;;;;;;;;;;;;6229822;23;19920;-80
2023/04/23 08:02:22;;;;;;;;;;;;;;;;;;6203381;23;19926;-80
2023/04/23 08:04:49;;;;;;;;;;;;;;;;;;6203897;23;20328;-80
2023/04/23 08:07:19;;;;;;;;;;;;;;;;;;6228027;22;20336;-81
2023/04/23 08:09:45;;;;;;;;;;;;;;;;;;6255169;23;19923;-80
2023/04/23 08:12:16;;;;;;;;;;;;;;;;;;6229725;23;19919;-81
2023/04/23 08:14:46;;;;;;;;;;;;;;;;;;6226678;23;19919;-79
2023/04/23 08:17:16;;;;;;;;;;;;;;;;;;6194884;22;20263;-80
2023/04/23 08:19:45;;;;;;;;;;;;;;;;;;6194186;23;20321;-79
2023/04/23 08:22:16;;;;;;;;;;;;;;;;;;6227602;23;20252;-80
2023/04/23 08:24:43;;;;;;;;;;;;;;;;;;6225520;23;19942;-80
2023/04/23 08:27:10;;;;;;;;;;;;;;;;;;6201535;22;20255;-80
2023/04/23 08:29:37;;;;;;;;;;;;;;;;;;6226333;23;19920;-80
2023/04/23 08:32:05;;;;;;;;;;;;;;;;;;6226700;23;19963;-80
2023/04/23 08:34:32;;;;;;;;;;;;;;;;;;6202661;23;19920;-80
2023/04/23 08:36:59;;;;;;;;;;;;;;;;;;6226101;22;19927;-80
2023/04/23 08:39:29;;;;;;;;;;;;;;;;;;6206056;23;19920;-80
2023/04/23 08:41:56;;;;;;;;;;;;;;;;;;6230547;23;19920;-81
2023/04/23 08:44:25;;;;;;;;;;;;;;;;;;6230920;23;19920;-81
2023/04/23 08:46:53;;;;;;;;;;;;;;;;;;6204456;23;19924;-81
2023/04/23 08:49:23;;;;;;;;;;;;;;;;;;6204613;23;19919;-80
2023/04/23 08:51:53;;;;;;;;;;;;;;;;;;6199593;23;20378;-79
2023/04/23 08:54:21;;;;;;;;;;;;;;;;;;6195829;23;19929;-79
2023/04/23 08:56:51;;;;;;;;;;;;;;;;;;6192495;23;19931;-79
2023/04/23 08:59:21;;;;;;;;;;;;;;;;;;6218334;23;19920;-79
2023/04/23 09:01:51;;;;;;;;;;;;;;;;;;6193133;23;19923;-79
2023/04/23 09:04:20;;;;;;;;;;;;;;;;;;6245926;23;20358;-79
2023/04/23 09:06:51;;;;;;;;;;;;;;;;;;6244885;23;19920;-79
2023/04/23 09:09:18;;;;;;;;;;;;;;;;;;6218357;23;19920;-79
2023/04/23 09:11:44;;;;;;;;;;;;;;;;;;6218497;23;20367;-79
2023/04/23 09:14:14;;;;;;;;;;;;;;;;;;6256361;23;19920;-80
2023/04/23 09:16:43;;;;;;;;;;;;;;;;;;6193894;23;19943;-78
2023/04/23 09:19:11;;;;;;;;;;;;;;;;;;6192330;23;19919;-79
2023/04/23 09:21:38;;;;;;;;;;;;;;;;;;6193838;23;19926;-79
2023/04/23 09:24:11;;;;;;;;;;;;;;;;;;6246096;23;19927;-78
2023/04/23 09:26:44;;;;;;;;;;;;;;;;;;6194692;23;19919;-80
2023/04/23 09:29:12;;;;;;;;;;;;;;;;;;6203643;23;19926;-80
2023/04/23 09:31:42;;;;;;;;;;;;;;;;;;6205053;23;19920;-80
2023/04/23 09:34:09;;;;;;;;;;;;;;;;;;6257027;23;19919;-80
2023/04/23 09:36:36;;;;;;;;;;;;;;;;;;6205195;23;19920;-80
2023/04/23 09:39:04;;;;;;;;;;;;;;;;;;6204365;23;19919;-80
2023/04/23 09:41:35;;;;;;;;;;;;;;;;;;6229653;23;19919;-80
2023/04/23 09:44:02;;;;;;;;;;;;;;;;;;6229552;23;20233;-80
2023/04/23 09:46:34;;;;;;;;;;;;;;;;;;6257884;23;19923;-80
2023/04/23 09:49:04;;;;;;;;;;;;;;;;;;6228427;23;19923;-81
2023/04/23 09:51:36;;;;;;;;;;;;;;;;;;6229584;23;19945;-81
2023/04/23 09:54:10;;;;;;;;;;;;;;;;;;6256782;23;19923;-80
2023/04/23 09:56:38;;;;;;;;;;;;;;;;;;6204530;23;19919;-80
2023/04/23 09:59:10;;;;;;;;;;;;;;;;;;6203719;23;19923;-80
2023/04/23 10:01:38;;;;;;;;;;;;;;;;;;6237597;23;19923;-80
2023/04/23 10:04:05;;;;;;;;;;;;;;;;;;6229314;23;19926;-80
2023/04/23 10:06:32;;;;;;;;;;;;;;;;;;6230854;23;19930;-80
2023/04/23 10:08:59;;;;;;;;;;;;;;;;;;6204659;23;19920;-80
2023/04/23 10:14:48;;;;;;;;;;;;;;;;;;6147806;23;19921;-80
2023/04/23 10:20:00;;;;;;;;;;;;;;;;;;6177427;23;19920;-81
2023/04/23 10:22:27;;;;;;;;;;;;;;;;;;6175214;23;19920;-80
2023/04/23 10:24:57;;;;;;;;;;;;;;;;;;6201703;23;19921;-80
2023/04/23 10:27:26;;;;;;;;;;;;;;;;;;6176162;23;19926;-80
2023/04/23 10:29:55;;;;;;;;;;;;;;;;;;6127191;23;19924;-81
2023/04/23 10:32:22;;;;;;;;;;;;;;;;;;6150535;23;19927;-81
2023/04/23 10:34:50;;;;;;;;;;;;;;;;;;6175944;23;19920;-81
2023/04/23 10:37:18;;;;;;;;;;;;;;;;;;6150628;23;19921;-81
2023/04/23 10:39:46;;;;;;;;;;;;;;;;;;6175955;23;19920;-81
2023/04/23 10:42:14;;;;;;;;;;;;;;;;;;6174376;23;19934;-81
2023/04/23 10:44:42;;;;;;;;;;;;;;;;;;6150600;23;19921;-81
2023/04/23 10:47:14;;;;;;;;;;;;;;;;;;6149600;23;19920;-81
2023/04/23 10:49:42;;;;;;;;;;;;;;;;;;6185869;23;19927;-81
2023/04/23 10:52:13;;;;;;;;;;;;;;;;;;6174765;23;19927;-81
2023/04/23 10:54:40;;;;;;;;;;;;;;;;;;6211069;23;20351;-81
2023/04/23 10:57:08;;;;;;;;;;;;;;;;;;6150275;23;19921;-81
2023/04/23 10:59:36;;;;;;;;;;;;;;;;;;6150417;23;19920;-81
2023/04/23 11:02:06;;;;;;;;;;;;;;;;;;6175923;23;19950;-81
2023/04/23 11:04:36;;;;;;;;;;;;;;;;;;6174684;23;19978;-81
2023/04/23 11:07:07;;;;;;;;;;;;;;;;;;6175388;23;19930;-82
2023/04/23 11:09:38;;;;;;;;;;;;;;;;;;6150950;23;19920;-81
2023/04/23 11:12:09;;;;;;;;;;;;;;;;;;6184061;23;20355;-81
2023/04/23 11:14:37;;;;;;;;;;;;;;;;;;6176352;23;19920;-81
2023/04/23 11:17:05;;;;;;;;;;;;;;;;;;6153644;23;19924;-82
2023/04/23 11:19:37;;;;;;;;;;;;;;;;;;6176737;23;20375;-81
2023/04/23 11:22:05;;;;;;;;;;;;;;;;;;6177854;23;19927;-81
2023/04/23 11:24:40;;;;;;;;;;;;;;;;;;6151952;23;19930;-81
2023/04/23 11:27:11;;;;;;;;;;;;;;;;;;6152067;23;19920;-82
2023/04/23 11:29:41;;;;;;;;;;;;;;;;;;6151848;23;19926;-82
2023/04/23 11:32:13;;;;;;;;;;;;;;;;;;6177512;23;19926;-81
2023/04/23 11:34:44;;;;;;;;;;;;;;;;;;6152262;23;19920;-82
2023/04/23 11:37:18;;;;;;;;;;;;;;;;;;6151107;23;19920;-79
2023/04/23 11:39:50;;;;;;;;;;;;;;;;;;6174361;23;19924;-81
2023/04/23 11:42:18;;;;;;;;;;;;;;;;;;6177892;23;19920;-82
2023/04/23 11:44:47;;;;;;;;;;;;;;;;;;6152013;23;19920;-81
2023/04/23 11:47:20;;;;;;;;;;;;;;;;;;6202661;23;19924;-82
2023/04/23 11:49:54;;;;;;;;;;;;;;;;;;6177326;23;19920;-81
2023/04/23 11:52:22;;;;;;;;;;;;;;;;;;6212322;23;19920;-81
2023/04/23 11:54:51;;;;;;;;;;;;;;;;;;6202463;23;19924;-80
2023/04/23 11:57:20;;;;;;;;;;;;;;;;;;6175643;23;19920;-80
2023/04/23 11:59:48;;;;;;;;;;;;;;;;;;6175704;23;19927;-81
2023/04/23 12:02:15;;;;;;;;;;;;;;;;;;6151667;23;19920;-81
2023/04/23 12:04:43;;;;;;;;;;;;;;;;;;6151854;23;19921;-81
2023/04/23 12:07:14;;;;;;;;;;;;;;;;;;6150529;23;20341;-81
2023/04/23 12:09:44;;;;;;;;;;;;;;;;;;6186114;23;19931;-81
2023/04/23 12:12:11;;;;;;;;;;;;;;;;;;6151114;23;20260;-81
2023/04/23 12:14:39;;;;;;;;;;;;;;;;;;6202399;23;20252;-81
2023/04/23 12:17:12;;;;;;;;;;;;;;;;;;6171610;23;19920;-80
2023/04/23 12:19:43;;;;;;;;;;;;;;;;;;6145993;23;19926;-80
2023/04/23 12:22:12;;;;;;;;;;;;;;;;;;6150958;23;19921;-80
2023/04/23 12:24:50;;;;;;;;;;;;;;;;;;6174554;23;19920;-80
2023/04/23 12:27:19;;;;;;;;;;;;;;;;;;6150629;23;19927;-81
2023/04/23 12:29:46;;;;;;;;;;;;;;;;;;6149489;23;19931;-80
2023/04/23 12:32:17;;;;;;;;;;;;;;;;;;6199549;23;19930;-80
2023/04/23 12:34:51;;;;;;;;;;;;;;;;;;6175739;23;19938;-81
2023/04/23 12:37:26;;;;;;;;;;;;;;;;;;6151838;23;19922;-81
2023/04/23 12:39:55;;;;;;;;;;;;;;;;;;6185651;23;19920;-81
2023/04/23 12:42:22;;;;;;;;;;;;;;;;;;6175086;23;19921;-81
2023/04/23 12:44:50;;;;;;;;;;;;;;;;;;6150454;23;19920;-80
2023/04/23 12:47:18;;;;;;;;;;;;;;;;;;6176439;23;19920;-80
2023/04/23 12:49:45;;;;;;;;;;;;;;;;;;6150109;23;19921;-80
2023/04/23 12:52:13;;;;;;;;;;;;;;;;;;6212170;23;19920;-80
2023/04/23 12:54:43;;;;;;;;;;;;;;;;;;6152301;23;19920;-81
2023/04/23 12:57:11;;;;;;;;;;;;;;;;;;6201730;23;19921;-81
2023/04/23 12:59:39;;;;;;;;;;;;;;;;;;6149940;23;19924;-80
2023/04/23 13:02:06;;;;;;;;;;;;;;;;;;6175939;23;19924;-81
2023/04/23 13:04:34;;;;;;;;;;;;;;;;;;6176315;23;19927;-81
2023/04/23 13:07:01;;;;;;;;;;;;;;;;;;6176014;23;19927;-82
2023/04/23 13:09:28;;;;;;;;;;;;;;;;;;6150633;23;19926;-81
2023/04/23 13:11:58;;;;;;;;;;;;;;;;;;6150545;23;19920;-81
2023/04/23 13:14:28;;;;;;;;;;;;;;;;;;6211161;23;19920;-81
2023/04/23 13:16:56;;;;;;;;;;;;;;;;;;6151297;23;19925;-83
2023/04/23 13:19:23;;;;;;;;;;;;;;;;;;6175387;23;19928;-81
2023/04/23 13:21:51;;;;;;;;;;;;;;;;;;6174909;23;19931;-81
2023/04/23 13:24:18;;;;;;;;;;;;;;;;;;6176439;23;19920;-81
2023/04/23 13:26:45;;;;;;;;;;;;;;;;;;6175733;23;19938;-81
2023/04/23 13:29:14;;;;;;;;;;;;;;;;;;6151606;23;19921;-81
2023/04/23 13:31:42;;;;;;;;;;;;;;;;;;6200160;23;19920;-81
2023/04/23 13:34:10;;;;;;;;;;;;;;;;;;6176205;23;19920;-81
2023/04/23 13:36:40;;;;;;;;;;;;;;;;;;6176600;23;19920;-81
2023/04/23 13:39:07;;;;;;;;;;;;;;;;;;6151258;23;19924;-81
2023/04/23 13:41:35;;;;;;;;;;;;;;;;;;6175453;23;19920;-81
2023/04/23 13:44:02;;;;;;;;;;;;;;;;;;6150893;23;19920;-81
2023/04/23 13:46:31;;;;;;;;;;;;;;;;;;6151182;23;19927;-81
2023/04/23 13:48:58;;;;;;;;;;;;;;;;;;6175585;23;19920;-81
2023/04/23 13:51:26;;;;;;;;;;;;;;;;;;6151339;23;19924;-81
2023/04/23 13:53:53;;;;;;;;;;;;;;;;;;6151442;23;19924;-81
2023/04/23 13:56:20;;;;;;;;;;;;;;;;;;6176119;23;19922;-81
2023/04/23 13:58:48;;;;;;;;;;;;;;;;;;6175600;23;19920;-81
2023/04/23 14:01:15;;;;;;;;;;;;;;;;;;6150793;23;19924;-81
2023/04/23 14:03:47;;;;;;;;;;;;;;;;;;6150479;23;19920;-81
2023/04/23 14:06:14;;;;;;;;;;;;;;;;;;6175839;23;19921;-81
2023/04/23 14:08:41;;;;;;;;;;;;;;;;;;6175970;23;19921;-81
2023/04/23 14:11:09;;;;;;;;;;;;;;;;;;6151801;23;19924;-81
2023/04/23 14:13:37;;;;;;;;;;;;;;;;;;6151182;23;19920;-81
2023/04/23 14:16:04;;;;;;;;;;;;;;;;;;6151870;23;19920;-81
2023/04/23 14:18:31;;;;;;;;;;;;;;;;;;6175516;23;19920;-81
2023/04/23 14:21:01;;;;;;;;;;;;;;;;;;6176111;23;19920;-81
2023/04/23 14:23:44;;;;;;;;;;;;;;;;;;6150512;23;19920;-81
2023/04/23 14:26:11;;;;;;;;;;;;;;;;;;6151976;23;19920;-81
2023/04/23 14:28:39;;;;;;;;;;;;;;;;;;6149599;23;20298;-81
2023/04/23 14:31:07;;;;;;;;;;;;;;;;;;6151801;23;19927;-81
2023/04/23 14:33:34;;;;;;;;;;;;;;;;;;6176546;23;19928;-81
2023/04/23 14:36:03;;;;;;;;;;;;;;;;;;6175775;23;19920;-81
2023/04/23 14:38:31;;;;;;;;;;;;;;;;;;6150753;23;19920;-81
2023/04/23 14:40:58;;;;;;;;;;;;;;;;;;6151399;23;19920;-81
2023/04/23 14:43:26;;;;;;;;;;;;;;;;;;6176589;23;20054;-80
2023/04/23 14:45:53;;;;;;;;;;;;;;;;;;6175531;23;19930;-80
2023/04/23 14:48:20;;;;;;;;;;;;;;;;;;6150968;23;19920;-81
2023/04/23 14:50:47;;;;;;;;;;;;;;;;;;6154180;23;19920;-81
2023/04/23 14:53:16;;;;;;;;;;;;;;;;;;6154433;23;19927;-82
2023/04/23 14:55:44;;;;;;;;;;;;;;;;;;6153204;23;19920;-80
2023/04/23 14:58:11;;;;;;;;;;;;;;;;;;6152461;23;19927;-80
2023/04/23 15:00:39;;;;;;;;;;;;;;;;;;6178337;23;19927;-80
2023/04/23 15:03:09;;;;;;;;;;;;;;;;;;6177369;23;19930;-80
2023/04/23 15:05:36;;;;;;;;;;;;;;;;;;6153020;23;19930;-80
2023/04/23 15:08:04;;;;;;;;;;;;;;;;;;6177926;23;19920;-80
2023/04/23 15:10:32;;;;;;;;;;;;;;;;;;6176941;23;20168;-80
2023/04/23 15:13:04;;;;;;;;;;;;;;;;;;6204067;23;19920;-80
2023/04/23 15:15:36;;;;;;;;;;;;;;;;;;6177528;23;19920;-80
2023/04/23 15:18:04;;;;;;;;;;;;;;;;;;6152213;23;19927;-80
2023/04/23 15:20:31;;;;;;;;;;;;;;;;;;6152858;23;19920;-81
2023/04/23 15:44:17;;;;;;;;;;;;;;;;;;6260987;22;19919;-80
2023/04/23 15:46:44;;;;;;;;;;;;;;;;;;6237589;23;19919;-81
2023/04/23 15:49:11;;;;;;;;;;;;;;;;;;6237065;23;19919;-80
2023/04/23 15:51:38;;;;;;;;;;;;;;;;;;6211933;23;19920;-80
2023/04/23 15:54:06;;;;;;;;;;;;;;;;;;6265038;23;19926;-80
2023/04/23 15:56:35;;;;;;;;;;;;;;;;;;6265145;23;19919;-80
2023/04/23 15:59:02;;;;;;;;;;;;;;;;;;6263592;22;20250;-81
2023/04/23 16:01:31;;;;;;;;;;;;;;;;;;6237005;23;19923;-81
2023/04/23 16:03:58;;;;;;;;;;;;;;;;;;6237265;23;19926;-81
2023/04/23 16:06:25;;;;;;;;;;;;;;;;;;6238065;23;19919;-81
2023/04/23 16:08:52;;;;;;;;;;;;;;;;;;6263903;22;19927;-81
2023/04/23 16:11:19;;;;;;;;;;;;;;;;;;6237717;23;19923;-81
2023/04/23 16:13:46;;;;;;;;;;;;;;;;;;6211502;23;19926;-81
2023/04/23 16:16:13;;;;;;;;;;;;;;;;;;6211618;23;19921;-81
2023/04/23 16:18:42;;;;;;;;;;;;;;;;;;6209254;23;19920;-81
2023/04/23 16:21:09;;;;;;;;;;;;;;;;;;6234252;23;19930;-81
2023/04/23 16:23:36;;;;;;;;;;;;;;;;;;6235611;23;20100;-80
2023/04/23 16:26:07;;;;;;;;;;;;;;;;;;6211145;23;20241;-81
2023/04/23 16:28:36;;;;;;;;;;;;;;;;;;6235888;23;19920;-81
2023/04/23 16:31:04;;;;;;;;;;;;;;;;;;6235228;23;19920;-83
2023/04/23 16:33:31;;;;;;;;;;;;;;;;;;6235656;23;19919;-81
2023/04/23 16:35:59;;;;;;;;;;;;;;;;;;6210510;23;19920;-80
2023/04/23 16:38:29;;;;;;;;;;;;;;;;;;6266200;22;19926;-80
2023/04/23 16:40:56;;;;;;;;;;;;;;;;;;6210374;23;19920;-81
2023/04/23 16:43:22;;;;;;;;;;;;;;;;;;6235828;23;19926;-80
2023/04/23 16:45:49;;;;;;;;;;;;;;;;;;6211700;23;19938;-81
2023/04/23 16:48:18;;;;;;;;;;;;;;;;;;6237132;23;19952;-80
2023/04/23 16:50:45;;;;;;;;;;;;;;;;;;6210647;23;19926;-80
2023/04/23 16:53:14;;;;;;;;;;;;;;;;;;6262975;23;19920;-80
2023/04/23 16:55:41;;;;;;;;;;;;;;;;;;6262661;23;19919;-80
2023/04/23 16:58:08;;;;;;;;;;;;;;;;;;6235958;23;19926;-80
2023/04/23 17:00:38;;;;;;;;;;;;;;;;;;6236690;23;20262;-80
2023/04/23 17:03:05;;;;;;;;;;;;;;;;;;6231763;23;20259;-80
2023/04/23 17:05:35;;;;;;;;;;;;;;;;;;6201615;23;19920;-80
2023/04/23 17:08:02;;;;;;;;;;;;;;;;;;6198489;23;19920;-80
2023/04/23 17:10:32;;;;;;;;;;;;;;;;;;6225762;23;19920;-80
2023/04/23 17:13:04;;;;;;;;;;;;;;;;;;6176838;23;19924;-80
2023/04/23 17:15:31;;;;;;;;;;;;;;;;;;6201860;23;20487;-80
2023/04/23 17:17:58;;;;;;;;;;;;;;;;;;6198941;23;20339;-80
2023/04/23 17:20:25;;;;;;;;;;;;;;;;;;6262310;23;19920;-80
2023/04/23 17:22:52;;;;;;;;;;;;;;;;;;6224507;23;19927;-80